EAGO2: Mountain Fork Riv, Eagletown,

                                SHEF ID:       EAGO2     Mountain Fork near Eagletown, OK
STATION TYPE: Stream Gauge
Regulating: Stage = 9.00, Flow = 9433

PRECIP STAGE RIV-FLOW WTR-TEMP BAT-LOAD
in ft cfs F volt
Ccp-Rev Ccp-Rev Ccp-Rev Ccp-Rev Ccp-Rev
(America/Chicago)
04/30 00:00 0.00 3.18 1508 64.67 12.73
04/30 01:00 0.00 3.05 1380 64.54 12.73
04/30 02:00 0.00 2.90 1241 64.42 12.73
04/30 03:00 0.00 2.76 1121 64.26 12.73
04/30 04:00 0.00 2.61 999 64.06 12.73
04/30 05:00 0.00 2.48 895 63.88 12.65
04/30 06:00 0.00 2.35 800 63.72 12.65
04/30 07:00 0.00 2.25 731 63.59 12.65
04/30 08:00 0.00 2.15 668 63.55 12.89
04/30 09:00 0.00 2.07 621 63.59 13.53
04/30 10:00 0.00 1.99 577 63.73 13.53
04/30 11:00 0.00 1.91 537 63.86 13.68
04/30 12:00 0.00 1.84 503 64.11 13.53
04/30 13:00 0.00 1.77 472 64.53 13.13
04/30 14:00 0.00 1.71 446 64.76 13.13
04/30 15:00 0.00 1.65 421 64.99 13.37
04/30 16:00 0.00 1.60 401 65.10 12.73
04/30 17:00 0.00 1.56 386 65.25 13.44
04/30 18:00 0.00 1.52 371 65.43 13.37
04/30 19:00 0.00 1.48 356 65.44 12.65
04/30 20:00 0.00 1.44 341 65.43 12.25
04/30 21:00 0.00 1.67 429 65.32 12.09
04/30 22:00 0.00 2.70 1071 64.87 12.09
04/30 23:00 0.00 3.28 1605 63.99 12.01
Data processed at Fri 01May2026 04:39 GMT

NOTICE: If you are parsing this page

Please convert to using our Data API. Starting early 2026 we will be migrating to: https://water.usace.army.mil with modern pages rendered in JavaScript. When this migration completes you will no longer be able to scrape this page! CWMSDataAPI (CDA)

Timeseries IDs (TSIDs)

TSIDs used from left to right in the data table
EAGL.Precip-Inc.Total.1Hour.1Hour.Ccp-Rev
EAGL.Stage.Inst.1Hour.0.Ccp-Rev
EAGL.Flow.Inst.1Hour.0.Ccp-Rev
EAGL.Temp-Water.Inst.1Hour.0.Ccp-Rev
EAGL.Volt-Battery Load.Inst.1Hour.0.Ccp-Rev

                            

All information presented herein is the property of the government of the United States of America and may be revised or deleted at any time without prior notice. Dissemination of this information without the expressed written consent of the Public Affairs Office, Tulsa District U.S. Army Corps of Engineers is strictly prohibited. These data are gathered electronically and, as presented, have NOT undergone any form of quality control. These data are NOT guaranteed to be valid or correct.